Saint Peters, Missouri
Current Conditions -  °F | °C
As of 1:54 PM on Monday 24 Nov 2014 (Local Time) from KSUS Reporting Station
Overcast Overcast  
Wind Chill: 31°   Ceiling: 4000
Heat Index: 39°   Visibility: 10mi
Dew Point: 28°   Wind: 13mph
Humidity: 65%   Direction: 260°W
Pressure: 29.75"   Gusts: 24mph
Location:  38.8°N, 90.63°W
Report Text: KSUS 241954Z 26011G21KT 10SM OVC040 04/M02 A2975 RMK AO2 PK WND 26026/1918 SLP079 T00391022
Loading
Personal Weather Stations






























Interactive Weather Map New forecast layout! Learn more

10-Day Weather Forecast

Advertisements
Track Severe Weather on mobile